You are not logged in, Click here to log in
慕尼黑機場MUC / EDDM 德國慕尼黑東北28公里的埃爾丁沼澤,緊鄰弗賴辛
ICAO: EDDM Country: 德國慕尼黑東北28公里的埃爾丁沼澤,緊鄰弗賴辛
Latitude: 48.3537 Longitude: 11.775
Total Arrivals: 8 Total Departures: 12
Latest Arrival: LH481 (KDEN-EDDM)ALAN. LIU Latest Departure: LH1750 (EDDM-LGAV)ALAN. LIU
Scenery:
METAR : EDDM 131020Z VRB02KT 9999 FEW025 BKN036 M00/M02 Q0982 R88/290095 BECMG 23005KT 3000 -SN

慕尼黑機場MUC

You are accessing this site from IP address 100.26.176.182. Virtual Airline. CMS by phpVMS.Website designed by Zumeweb and edited by Theo Bearman.
There is 0 User(s) Online: | and 11 Guest(s) Online.
All information on this site is for fight simulation purposes only. This site is for flight logging for pilots of Virtual Airline&模擬飛行論壇 FlySim only.